createdAt,value
2023-02-02T00:04:24.898Z,10.02
2023-02-02T00:09:51.989Z,14.38
2023-02-02T00:15:19.098Z,12.88
2023-02-02T00:20:49.615Z,9.15
2023-02-02T00:26:18.049Z,9.60
2023-02-02T00:31:46.864Z,14.18
2023-02-02T00:37:14.992Z,13.52
2023-02-02T00:42:43.525Z,7.53
2023-02-02T00:48:13.729Z,10.60
2023-02-02T00:53:40.889Z,9.55
2023-02-02T00:59:07.726Z,11.80
2023-02-02T01:04:35.068Z,5.82
2023-02-02T01:10:02.188Z,10.30
2023-02-02T01:15:30.848Z,20.77
2023-02-02T01:21:03.888Z,9.63
2023-02-02T01:26:31.136Z,15.82
2023-02-02T01:31:58.152Z,15.32
2023-02-02T01:37:25.153Z,9.57
2023-02-02T01:42:52.244Z,12.18
2023-02-02T01:48:22.352Z,13.38
2023-02-02T01:53:53.246Z,14.10
2023-02-02T01:59:22.078Z,12.23
2023-02-02T02:04:51.196Z,12.15
2023-02-02T02:10:19.285Z,7.90
2023-02-02T02:16:20.974Z,6.40
2023-02-02T02:22:21.508Z,10.77
2023-02-02T02:28:21.067Z,9.57
2023-02-02T02:34:07.037Z,7.82
2023-02-02T02:40:10.489Z,14.40
2023-02-02T02:45:39.518Z,13.95
2023-02-02T02:51:08.792Z,8.60
2023-02-02T02:56:40.146Z,12.50
2023-02-02T03:02:17.256Z,8.65
2023-02-02T03:07:56.466Z,11.98
2023-02-02T03:13:24.036Z,8.27
2023-02-02T03:18:51.685Z,12.95
2023-02-02T03:24:19.724Z,16.00
2023-02-02T03:29:47.639Z,12.13
2023-02-02T03:35:15.307Z,10.30
2023-02-02T03:40:42.663Z,8.13
2023-02-02T03:46:10.703Z,10.90
2023-02-02T03:51:38.395Z,13.93
2023-02-02T03:57:05.366Z,10.68
2023-02-02T04:02:32.403Z,10.93
2023-02-02T04:07:59.387Z,9.82
2023-02-02T04:13:26.567Z,10.43
2023-02-02T04:18:53.659Z,8.55
2023-02-02T04:24:21.350Z,12.48
2023-02-02T04:29:48.633Z,18.67
2023-02-02T04:35:15.365Z,17.63
2023-02-02T04:40:44.330Z,8.63
2023-02-02T04:46:12.200Z,8.63
2023-02-02T04:51:40.726Z,7.20
2023-02-02T04:57:07.727Z,9.30
2023-02-02T05:02:41.916Z,19.15
2023-02-02T05:08:12.160Z,8.85
2023-02-02T05:13:39.454Z,8.73
2023-02-02T05:19:06.931Z,9.75
2023-02-02T05:24:35.143Z,7.43
2023-02-02T05:30:02.527Z,7.40
2023-02-02T05:35:29.826Z,13.35
2023-02-02T05:40:57.475Z,12.57
2023-02-02T05:46:24.746Z,12.25
2023-02-02T05:51:57.923Z,7.05
2023-02-02T05:57:25.994Z,7.00
2023-02-02T06:02:54.204Z,10.48
2023-02-02T06:08:21.691Z,9.25
2023-02-02T06:13:48.828Z,9.15
2023-02-02T06:19:16.133Z,8.90
2023-02-02T06:24:43.624Z,6.95
2023-02-02T06:30:12.008Z,7.22
2023-02-02T06:35:40.153Z,5.15
2023-02-02T06:41:07.704Z,7.07
2023-02-02T06:46:34.785Z,6.90
2023-02-02T06:52:02.312Z,9.23
2023-02-02T06:57:30.203Z,8.40
2023-02-02T07:02:58.152Z,8.85
2023-02-02T07:08:26.177Z,4.03
2023-02-02T07:13:55.515Z,9.18
2023-02-02T07:19:22.997Z,9.98
2023-02-02T07:24:49.876Z,4.70
2023-02-02T07:30:17.414Z,4.25
2023-02-02T07:35:45.114Z,3.58
2023-02-02T07:41:13.107Z,5.68
2023-02-02T07:46:40.266Z,7.47
2023-02-02T07:52:08.133Z,4.57
2023-02-02T07:57:35.214Z,6.97
2023-02-02T08:03:02.257Z,2.38
2023-02-02T08:08:29.944Z,3.75
2023-02-02T08:13:59.460Z,5.95
2023-02-02T08:19:27.258Z,4.13
2023-02-02T08:24:55.015Z,8.00
2023-02-02T08:30:22.505Z,5.05
2023-02-02T08:35:50.197Z,7.20
2023-02-02T08:41:20.574Z,3.50
2023-02-02T08:46:47.844Z,3.95
2023-02-02T08:52:15.603Z,3.47
2023-02-02T08:57:43.244Z,5.07
2023-02-02T09:03:10.333Z,3.67
2023-02-02T09:08:37.406Z,7.95
2023-02-02T09:14:06.920Z,3.33
2023-02-02T09:19:35.734Z,5.28
2023-02-02T09:25:03.537Z,3.25
2023-02-02T09:30:31.653Z,4.57
2023-02-02T09:36:11.639Z,5.80
2023-02-02T09:41:39.652Z,2.60
2023-02-02T09:47:19.399Z,5.78
2023-02-02T09:52:59.003Z,5.65
2023-02-02T09:58:29.653Z,3.65
2023-02-02T10:04:15.361Z,5.40
2023-02-02T10:09:48.284Z,6.97
2023-02-02T10:15:44.675Z,4.35
2023-02-02T10:21:29.502Z,3.88
2023-02-02T10:27:04.562Z,3.42
2023-02-02T10:33:01.502Z,7.72
2023-02-02T10:38:43.105Z,5.53
2023-02-02T10:44:36.162Z,11.43
2023-02-02T10:50:12.673Z,3.63
2023-02-02T10:55:52.036Z,3.13
2023-02-02T11:01:22.940Z,5.65
2023-02-02T11:06:50.611Z,3.95
2023-02-02T11:12:21.976Z,1.75
2023-02-02T11:17:50.052Z,5.55
2023-02-02T11:23:21.176Z,6.03
2023-02-02T11:28:49.955Z,5.80
2023-02-02T11:34:22.155Z,17.20
2023-02-02T11:39:49.556Z,4.30
2023-02-02T11:45:19.250Z,4.25
2023-02-02T11:50:58.068Z,4.75
2023-02-02T11:56:27.318Z,9.02
2023-02-02T12:02:17.281Z,6.60
2023-02-02T12:07:45.197Z,7.22
2023-02-02T12:13:42.788Z,5.35
2023-02-02T12:19:48.806Z,4.65
2023-02-02T12:25:15.813Z,4.93
2023-02-02T12:31:06.021Z,2.72
2023-02-02T12:37:03.728Z,8.23
2023-02-02T12:42:46.713Z,8.52
2023-02-02T12:48:58.818Z,6.13
2023-02-02T12:54:55.035Z,4.07
2023-02-02T13:00:35.441Z,7.18
2023-02-02T13:06:31.994Z,8.52
2023-02-02T13:12:08.774Z,5.82
2023-02-02T13:17:57.618Z,9.57
2023-02-02T13:23:49.554Z,9.73
2023-02-02T13:29:26.373Z,9.13
2023-02-02T13:35:00.633Z,8.25
2023-02-02T13:40:32.447Z,6.88
2023-02-02T13:46:09.470Z,15.17
2023-02-02T13:51:56.013Z,11.20
2023-02-02T13:58:01.752Z,11.85
2023-02-02T14:03:38.936Z,6.25
2023-02-02T14:09:08.248Z,6.90
2023-02-02T14:14:40.124Z,7.20
2023-02-02T14:20:43.464Z,6.35
2023-02-02T14:26:11.397Z,9.47
2023-02-02T14:31:52.526Z,4.20
2023-02-02T14:37:29.273Z,8.63
2023-02-02T14:43:44.201Z,6.90
2023-02-02T14:54:42.941Z,6.03
2023-02-02T15:00:26.664Z,3.90
2023-02-02T15:06:03.863Z,5.60
2023-02-02T15:12:02.190Z,6.53
2023-02-02T15:17:44.938Z,7.13
2023-02-02T15:23:33.819Z,8.60
2023-02-02T15:29:06.882Z,7.80
2023-02-02T15:34:45.796Z,5.25
2023-02-02T15:40:32.622Z,5.95
2023-02-02T15:46:07.482Z,6.78
2023-02-02T15:51:35.447Z,7.85
2023-02-02T15:57:03.638Z,8.85
2023-02-02T16:02:41.750Z,6.22
2023-02-02T16:08:19.276Z,5.20
2023-02-02T16:14:10.591Z,4.00
2023-02-02T16:19:46.308Z,3.90
2023-02-02T16:25:24.207Z,3.90
2023-02-02T16:30:52.982Z,7.50
2023-02-02T16:36:25.991Z,6.57
2023-02-02T16:41:55.601Z,5.72
2023-02-02T16:47:26.594Z,10.88
2023-02-02T16:53:07.898Z,7.97
2023-02-02T16:58:44.032Z,3.20
2023-02-02T17:04:19.529Z,4.55
2023-02-02T17:09:48.899Z,6.15
2023-02-02T17:15:17.735Z,7.85
2023-02-02T17:20:54.783Z,5.55
2023-02-02T17:26:22.783Z,7.20
2023-02-02T17:31:52.788Z,4.07
2023-02-02T17:37:21.559Z,3.30
2023-02-02T17:42:52.602Z,3.20
2023-02-02T17:48:21.112Z,8.35
2023-02-02T17:53:49.313Z,6.97
2023-02-02T17:59:19.275Z,5.47
2023-02-02T18:04:48.775Z,4.22
2023-02-02T18:10:20.398Z,7.45
2023-02-02T18:21:17.887Z,13.02
2023-02-02T18:26:45.592Z,10.00
2023-02-02T18:32:14.227Z,13.15
2023-02-02T18:37:41.794Z,10.45
2023-02-02T18:43:09.848Z,9.35
2023-02-02T18:48:36.953Z,6.35
2023-02-02T18:54:05.467Z,5.15
2023-02-02T18:59:32.985Z,5.22
2023-02-02T19:05:19.394Z,3.15
2023-02-02T19:10:47.004Z,4.13
2023-02-02T19:16:27.286Z,6.60
2023-02-02T19:21:57.477Z,7.97
2023-02-02T19:27:27.248Z,5.75
2023-02-02T19:32:55.024Z,6.90
2023-02-02T19:38:27.584Z,4.70
2023-02-02T19:43:59.049Z,10.27
2023-02-02T19:49:38.766Z,7.88
2023-02-02T19:55:39.485Z,10.20
2023-02-02T20:01:19.937Z,11.20
2023-02-02T20:06:58.953Z,15.63
2023-02-02T20:12:34.226Z,12.20
2023-02-02T20:18:12.063Z,11.27
2023-02-02T20:23:47.221Z,16.17
2023-02-02T20:29:49.250Z,14.23
2023-02-02T20:35:27.487Z,17.27
2023-02-02T20:40:55.780Z,14.30
2023-02-02T20:46:23.017Z,16.92
2023-02-02T20:51:50.431Z,13.13
2023-02-02T20:57:20.248Z,15.38
2023-02-02T21:02:52.223Z,18.93
2023-02-02T21:08:19.896Z,18.00
2023-02-02T21:13:50.979Z,18.08
2023-02-02T21:19:19.613Z,22.63
2023-02-02T21:24:49.237Z,17.45
2023-02-02T21:30:17.144Z,16.98
2023-02-02T21:35:44.479Z,17.77
2023-02-02T21:41:14.872Z,19.85
2023-02-02T21:46:42.661Z,23.95
2023-02-02T21:52:17.291Z,16.98
2023-02-02T21:57:45.673Z,17.52
2023-02-02T22:03:35.456Z,20.90
2023-02-02T22:09:12.056Z,26.65
2023-02-02T22:14:42.694Z,23.63
2023-02-02T22:20:26.121Z,25.95
2023-02-02T22:25:55.664Z,26.42
2023-02-02T22:31:23.558Z,30.80
2023-02-02T22:36:51.251Z,25.88
2023-02-02T22:42:18.624Z,36.97
2023-02-02T22:47:47.781Z,21.90
2023-02-02T22:53:15.852Z,26.58
2023-02-02T22:58:43.173Z,19.15
2023-02-02T23:04:10.294Z,21.80
2023-02-02T23:09:37.128Z,22.02
2023-02-02T23:15:05.215Z,19.08
2023-02-02T23:20:32.444Z,17.25
2023-02-02T23:25:59.389Z,20.33
2023-02-02T23:31:26.348Z,19.38
2023-02-02T23:36:53.813Z,25.42
2023-02-02T23:42:21.229Z,19.83
2023-02-02T23:47:48.779Z,20.92
2023-02-02T23:53:16.817Z,34.45
2023-02-02T23:58:44.271Z,29.55
